VIR153 EGLL-KJFK
Flight info
| Callsign | VIR153 |
|---|---|
| Flight time | N/A |
| Altitude | 36000 |
| Route | CPT L9 BIBPE DCT BUCGO DCT FELCA DCT NICXI DCT BAKUR DCT NEBIN/M085F370 NATD IBERG/N0485F380 N364A TUSKY DCT PLYMM PARCH4 |
| Aircraft | A35K/H-SDE2E3GHIJ3J4J5LM1ORWXY/LB1D1 |
Departure
| Time | 2026-05-07 15:55 |
|---|---|
| Airport | London Heathrow Airport (EGLL) |
Arrival
| Time | N/A |
|---|---|
| Airport | John F. Kennedy International Airport (KJFK) |
| Time | Latitude | Longitude | Altitude | Speed | Heading |
|---|---|---|---|---|---|
| 2026-05-07 15:10 | 51.47393 | -0.46247 | 92 ft | 0 kts | 234° |
| 2026-05-07 15:35 | 51.47403 | -0.46223 | 94 ft | 4 kts | 236° |
| 2026-05-07 15:35 | 51.47418 | -0.46187 | 91 ft | 3 kts | 236° |
| 2026-05-07 15:35 | 51.47428 | -0.46156 | 93 ft | 4 kts | 277° |
| 2026-05-07 15:35 | 51.47417 | -0.46122 | 91 ft | 4 kts | 321° |
| 2026-05-07 15:36 | 51.47399 | -0.46101 | 90 ft | 1 kts | 325° |
| 2026-05-07 15:36 | 51.47396 | -0.46098 | 90 ft | 0 kts | 325° |
| 2026-05-07 15:41 | 51.47399 | -0.46102 | 90 ft | 2 kts | 326° |
| 2026-05-07 15:41 | 51.47419 | -0.46123 | 91 ft | 5 kts | 326° |
| 2026-05-07 15:42 | 51.47453 | -0.46161 | 95 ft | 7 kts | 325° |
| 2026-05-07 15:42 | 51.47499 | -0.46215 | 97 ft | 9 kts | 313° |
| 2026-05-07 15:42 | 51.47514 | -0.46319 | 93 ft | 11 kts | 272° |
| 2026-05-07 15:42 | 51.47515 | -0.46452 | 94 ft | 13 kts | 270° |
| 2026-05-07 15:43 | 51.47516 | -0.46607 | 92 ft | 15 kts | 270° |
| 2026-05-07 15:43 | 51.47509 | -0.46710 | 95 ft | 8 kts | 255° |
| 2026-05-07 15:43 | 51.47496 | -0.46811 | 95 ft | 10 kts | 263° |
| 2026-05-07 15:43 | 51.47450 | -0.46883 | 96 ft | 10 kts | 186° |
| 2026-05-07 15:44 | 51.47387 | -0.46872 | 95 ft | 9 kts | 172° |
| 2026-05-07 15:44 | 51.47326 | -0.46867 | 92 ft | 9 kts | 179° |
| 2026-05-07 15:44 | 51.47256 | -0.46866 | 92 ft | 11 kts | 180° |
| 2026-05-07 15:44 | 51.47171 | -0.46865 | 94 ft | 13 kts | 180° |
| 2026-05-07 15:45 | 51.47085 | -0.46864 | 94 ft | 10 kts | 179° |
| 2026-05-07 15:45 | 51.47023 | -0.46864 | 92 ft | 8 kts | 180° |
| 2026-05-07 15:45 | 51.46974 | -0.46864 | 92 ft | 8 kts | 180° |
| 2026-05-07 15:45 | 51.46912 | -0.46863 | 94 ft | 11 kts | 179° |
| 2026-05-07 15:46 | 51.46759 | -0.46901 | 96 ft | 9 kts | 240° |
| 2026-05-07 15:46 | 51.46748 | -0.47011 | 96 ft | 11 kts | 266° |
| 2026-05-07 15:46 | 51.46746 | -0.47148 | 95 ft | 13 kts | 270° |
| 2026-05-07 15:47 | 51.46747 | -0.47308 | 96 ft | 15 kts | 269° |
| 2026-05-07 15:47 | 51.46745 | -0.47489 | 95 ft | 17 kts | 270° |
| 2026-05-07 15:47 | 51.46745 | -0.47692 | 92 ft | 19 kts | 270° |
| 2026-05-07 15:47 | 51.46744 | -0.47900 | 92 ft | 16 kts | 270° |
| 2026-05-07 15:48 | 51.46744 | -0.48074 | 92 ft | 12 kts | 270° |
| 2026-05-07 15:48 | 51.46743 | -0.48212 | 94 ft | 13 kts | 270° |
| 2026-05-07 15:48 | 51.46743 | -0.48363 | 92 ft | 15 kts | 270° |
| 2026-05-07 15:48 | 51.46742 | -0.48520 | 93 ft | 15 kts | 270° |
| 2026-05-07 15:49 | 51.46741 | -0.48667 | 92 ft | 11 kts | 266° |
| 2026-05-07 15:49 | 51.46699 | -0.48738 | 97 ft | 8 kts | 195° |
| 2026-05-07 15:49 | 51.46649 | -0.48748 | 93 ft | 4 kts | 189° |
| 2026-05-07 15:49 | 51.46617 | -0.48761 | 95 ft | 2 kts | 195° |
| 2026-05-07 15:50 | 51.46608 | -0.48765 | 95 ft | 0 kts | 196° |
| 2026-05-07 15:50 | 51.46597 | -0.48771 | 95 ft | 4 kts | 197° |
| 2026-05-07 15:50 | 51.46549 | -0.48786 | 95 ft | 9 kts | 181° |
| 2026-05-07 15:51 | 51.46494 | -0.48740 | 96 ft | 10 kts | 131° |
| 2026-05-07 15:51 | 51.46477 | -0.48640 | 95 ft | 6 kts | 90° |
| 2026-05-07 15:51 | 51.46477 | -0.48614 | 96 ft | 0 kts | 87° |
| 2026-05-07 15:51 | 51.46478 | -0.48597 | 94 ft | 3 kts | 88° |
| 2026-05-07 15:52 | 51.46478 | -0.48589 | 93 ft | 0 kts | 88° |
| 2026-05-07 15:54 | 51.46479 | -0.48506 | 96 ft | 29 kts | 89° |
| 2026-05-07 15:54 | 51.46480 | -0.47803 | 95 ft | 95 kts | 89° |
| 2026-05-07 15:55 | 51.46485 | -0.46429 | 100 ft | 150 kts | 90° |
| 2026-05-07 15:55 | 51.46501 | -0.44708 | 628 ft | 154 kts | 88° |
| 2026-05-07 15:55 | 51.46531 | -0.42958 | 1127 ft | 162 kts | 91° |
| 2026-05-07 15:55 | 51.46438 | -0.41086 | 1457 ft | 177 kts | 103° |
| 2026-05-07 15:56 | 51.45909 | -0.39232 | 1755 ft | 192 kts | 129° |
| 2026-05-07 15:56 | 51.44847 | -0.37867 | 2089 ft | 208 kts | 155° |
| 2026-05-07 15:56 | 51.43395 | -0.37283 | 2368 ft | 227 kts | 179° |
| 2026-05-07 15:56 | 51.41800 | -0.37836 | 2669 ft | 246 kts | 209° |
| 2026-05-07 15:57 | 51.40564 | -0.39754 | 3238 ft | 253 kts | 240° |
| 2026-05-07 15:57 | 51.40089 | -0.42463 | 3884 ft | 258 kts | 269° |
| 2026-05-07 15:57 | 51.40371 | -0.45321 | 4549 ft | 261 kts | 282° |
| 2026-05-07 15:57 | 51.40773 | -0.48185 | 5212 ft | 266 kts | 281° |
| 2026-05-07 15:58 | 51.41146 | -0.51098 | 5856 ft | 268 kts | 280° |
| 2026-05-07 15:58 | 51.41481 | -0.54029 | 5992 ft | 269 kts | 279° |
| 2026-05-07 15:58 | 51.41777 | -0.56946 | 5996 ft | 266 kts | 278° |
| 2026-05-07 15:58 | 51.42048 | -0.59867 | 6100 ft | 269 kts | 278° |
| 2026-05-07 15:59 | 51.42378 | -0.62817 | 6093 ft | 269 kts | 280° |
| 2026-05-07 15:59 | 51.42731 | -0.65766 | 6092 ft | 270 kts | 280° |
| 2026-05-07 15:59 | 51.43100 | -0.68715 | 6095 ft | 270 kts | 281° |
| 2026-05-07 15:59 | 51.43453 | -0.71675 | 6094 ft | 270 kts | 279° |
| 2026-05-07 16:00 | 51.43754 | -0.74640 | 6098 ft | 270 kts | 277° |
| 2026-05-07 16:00 | 51.44025 | -0.77614 | 6095 ft | 270 kts | 278° |
| 2026-05-07 16:00 | 51.44345 | -0.80581 | 6097 ft | 270 kts | 280° |
| 2026-05-07 16:00 | 51.44726 | -0.83488 | 6100 ft | 270 kts | 282° |
| 2026-05-07 16:01 | 51.45166 | -0.86415 | 6099 ft | 270 kts | 283° |
| 2026-05-07 16:01 | 51.45530 | -0.89370 | 6109 ft | 270 kts | 278° |
| 2026-05-07 16:01 | 51.45784 | -0.92279 | 6106 ft | 270 kts | 276° |
| 2026-05-07 16:01 | 51.46066 | -0.95254 | 6086 ft | 270 kts | 281° |
| 2026-05-07 16:02 | 51.46472 | -0.98192 | 6072 ft | 269 kts | 282° |
| 2026-05-07 16:02 | 51.46838 | -1.01132 | 6056 ft | 269 kts | 279° |
| 2026-05-07 16:02 | 51.47140 | -1.04087 | 6039 ft | 268 kts | 278° |
| 2026-05-07 16:02 | 51.47422 | -1.07037 | 6118 ft | 268 kts | 278° |
| 2026-05-07 16:03 | 51.47708 | -1.09965 | 6041 ft | 269 kts | 279° |
| 2026-05-07 16:03 | 51.48060 | -1.12892 | 6029 ft | 269 kts | 281° |
| 2026-05-07 16:03 | 51.48448 | -1.15826 | 6084 ft | 269 kts | 281° |
| 2026-05-07 16:03 | 51.48817 | -1.18768 | 6056 ft | 267 kts | 280° |
| 2026-05-07 16:04 | 51.49317 | -1.21640 | 6043 ft | 268 kts | 295° |
| 2026-05-07 16:04 | 51.50410 | -1.23987 | 6372 ft | 257 kts | 314° |
| 2026-05-07 16:04 | 51.51741 | -1.25875 | 6940 ft | 260 kts | 319° |
| 2026-05-07 16:04 | 51.53156 | -1.27820 | 7354 ft | 275 kts | 317° |
| 2026-05-07 16:05 | 51.54610 | -1.29871 | 7986 ft | 280 kts | 316° |
| 2026-05-07 16:05 | 51.56062 | -1.31975 | 8725 ft | 283 kts | 315° |
| 2026-05-07 16:05 | 51.57470 | -1.34150 | 9491 ft | 285 kts | 313° |
| 2026-05-07 16:05 | 51.58873 | -1.36407 | 10255 ft | 287 kts | 313° |
| 2026-05-07 16:06 | 51.60283 | -1.38718 | 10849 ft | 294 kts | 309° |
| 2026-05-07 16:06 | 51.61463 | -1.41478 | 11238 ft | 306 kts | 297° |
| 2026-05-07 16:06 | 51.62487 | -1.44560 | 11705 ft | 318 kts | 294° |
| 2026-05-07 16:06 | 51.63515 | -1.47797 | 12137 ft | 332 kts | 295° |
| 2026-05-07 16:07 | 51.64626 | -1.51139 | 12581 ft | 345 kts | 297° |
| 2026-05-07 16:07 | 51.65808 | -1.54573 | 13032 ft | 356 kts | 297° |
| 2026-05-07 16:07 | 51.67001 | -1.58125 | 13498 ft | 366 kts | 296° |
| 2026-05-07 16:07 | 51.68181 | -1.61755 | 13963 ft | 375 kts | 295° |
| 2026-05-07 16:08 | 51.69371 | -1.65542 | 14380 ft | 383 kts | 294° |
| 2026-05-07 16:08 | 51.70299 | -1.69580 | 14804 ft | 388 kts | 282° |
| 2026-05-07 16:08 | 51.70784 | -1.73875 | 15344 ft | 390 kts | 276° |
| 2026-05-07 16:08 | 51.71110 | -1.78256 | 15818 ft | 396 kts | 275° |
| 2026-05-07 16:09 | 51.71403 | -1.82649 | 16396 ft | 398 kts | 274° |
| 2026-05-07 16:09 | 51.71680 | -1.87080 | 17036 ft | 400 kts | 274° |
| 2026-05-07 16:09 | 51.71959 | -1.91548 | 17686 ft | 402 kts | 275° |
| 2026-05-07 16:09 | 51.72284 | -1.95977 | 18302 ft | 404 kts | 275° |
| 2026-05-07 16:10 | 51.72640 | -2.00481 | 18831 ft | 407 kts | 276° |
| 2026-05-07 16:10 | 51.72999 | -2.05035 | 19358 ft | 411 kts | 275° |
| 2026-05-07 16:10 | 51.73340 | -2.09504 | 19888 ft | 413 kts | 275° |
| 2026-05-07 16:10 | 51.73684 | -2.14213 | 20446 ft | 416 kts | 275° |
| 2026-05-07 16:11 | 51.74013 | -2.18866 | 21013 ft | 419 kts | 275° |
| 2026-05-07 16:11 | 51.74337 | -2.23555 | 21571 ft | 422 kts | 275° |
| 2026-05-07 16:11 | 51.74659 | -2.28281 | 22140 ft | 425 kts | 275° |
| 2026-05-07 16:11 | 51.74961 | -2.32746 | 22652 ft | 428 kts | 275° |
| 2026-05-07 16:12 | 51.75288 | -2.37606 | 23218 ft | 431 kts | 275° |
| 2026-05-07 16:12 | 51.75611 | -2.42431 | 23738 ft | 434 kts | 275° |
| 2026-05-07 16:12 | 51.75936 | -2.47308 | 24138 ft | 439 kts | 275° |
| 2026-05-07 16:12 | 51.76262 | -2.52222 | 24611 ft | 441 kts | 275° |
| 2026-05-07 16:13 | 51.76581 | -2.57066 | 25094 ft | 444 kts | 275° |
| 2026-05-07 16:13 | 51.76906 | -2.62029 | 25570 ft | 446 kts | 275° |
| 2026-05-07 16:13 | 51.77235 | -2.67021 | 26038 ft | 448 kts | 275° |
| 2026-05-07 16:13 | 51.77560 | -2.72046 | 26503 ft | 451 kts | 274° |
| 2026-05-07 16:14 | 51.77882 | -2.77093 | 26977 ft | 453 kts | 274° |
| 2026-05-07 16:14 | 51.78189 | -2.81926 | 27461 ft | 455 kts | 274° |
| 2026-05-07 16:14 | 51.78510 | -2.87027 | 27914 ft | 458 kts | 274° |
| 2026-05-07 16:14 | 51.78831 | -2.92150 | 28353 ft | 461 kts | 274° |
| 2026-05-07 16:15 | 51.79154 | -2.97329 | 28724 ft | 464 kts | 274° |
| 2026-05-07 16:15 | 51.79476 | -3.02523 | 29125 ft | 467 kts | 274° |
| 2026-05-07 16:15 | 51.79798 | -3.07765 | 29527 ft | 469 kts | 274° |
| 2026-05-07 16:15 | 51.80118 | -3.13013 | 29912 ft | 471 kts | 274° |
| 2026-05-07 16:16 | 51.80438 | -3.18275 | 30390 ft | 469 kts | 274° |
| 2026-05-07 16:16 | 51.80754 | -3.23519 | 30841 ft | 468 kts | 274° |
| 2026-05-07 16:16 | 51.81066 | -3.28752 | 31253 ft | 468 kts | 274° |
| 2026-05-07 16:16 | 51.81376 | -3.33981 | 31648 ft | 467 kts | 274° |
| 2026-05-07 16:17 | 51.81678 | -3.39124 | 32047 ft | 466 kts | 274° |
| 2026-05-07 16:17 | 51.81981 | -3.44333 | 32417 ft | 466 kts | 274° |
| 2026-05-07 16:17 | 51.82283 | -3.49545 | 32772 ft | 465 kts | 274° |
| 2026-05-07 16:17 | 51.82712 | -3.54732 | 33175 ft | 465 kts | 279° |
| 2026-05-07 16:18 | 51.83317 | -3.59854 | 33563 ft | 464 kts | 279° |
| 2026-05-07 16:18 | 51.83956 | -3.64965 | 33921 ft | 463 kts | 279° |
| 2026-05-07 16:18 | 51.84613 | -3.70074 | 34234 ft | 463 kts | 279° |
| 2026-05-07 16:18 | 51.85274 | -3.75162 | 34467 ft | 463 kts | 279° |
| 2026-05-07 16:19 | 51.85929 | -3.80199 | 34681 ft | 464 kts | 279° |
| 2026-05-07 16:19 | 51.86590 | -3.85313 | 34906 ft | 465 kts | 279° |
| 2026-05-07 16:19 | 51.87248 | -3.90433 | 35116 ft | 465 kts | 279° |
| 2026-05-07 16:19 | 51.87901 | -3.95560 | 35295 ft | 467 kts | 279° |
| 2026-05-07 16:20 | 51.88555 | -4.00716 | 35493 ft | 467 kts | 279° |
| 2026-05-07 16:20 | 51.89204 | -4.05856 | 35715 ft | 467 kts | 279° |
| 2026-05-07 16:20 | 51.89852 | -4.11014 | 35917 ft | 467 kts | 279° |
| 2026-05-07 16:21 | 51.91150 | -4.21406 | 36012 ft | 475 kts | 279° |
| 2026-05-07 16:21 | 51.92444 | -4.31836 | 36004 ft | 475 kts | 279° |
| 2026-05-07 16:22 | 51.93736 | -4.42331 | 36008 ft | 475 kts | 279° |
| 2026-05-07 16:22 | 51.95018 | -4.52820 | 36002 ft | 474 kts | 279° |
| 2026-05-07 16:23 | 51.96290 | -4.63322 | 36001 ft | 475 kts | 279° |
| 2026-05-07 16:23 | 51.97544 | -4.73759 | 36001 ft | 475 kts | 279° |
| 2026-05-07 16:24 | 51.98799 | -4.84284 | 36003 ft | 475 kts | 278° |
| 2026-05-07 16:24 | 52.00047 | -4.94821 | 36003 ft | 475 kts | 278° |
| 2026-05-07 16:25 | 52.01668 | -5.05228 | 36001 ft | 479 kts | 289° |
| 2026-05-07 16:25 | 52.04696 | -5.14816 | 36001 ft | 482 kts | 297° |
| 2026-05-07 16:26 | 52.08129 | -5.24198 | 35999 ft | 483 kts | 298° |
| 2026-05-07 16:26 | 52.11609 | -5.33555 | 35999 ft | 483 kts | 298° |
| 2026-05-07 16:27 | 52.15061 | -5.42932 | 35999 ft | 483 kts | 298° |
| 2026-05-07 16:27 | 52.18471 | -5.52283 | 35993 ft | 483 kts | 298° |
| 2026-05-07 16:28 | 52.21890 | -5.61713 | 35993 ft | 483 kts | 298° |
| 2026-05-07 16:28 | 52.24725 | -5.71573 | 35996 ft | 478 kts | 285° |
| 2026-05-07 16:29 | 52.26698 | -5.81934 | 35990 ft | 478 kts | 284° |
| 2026-05-07 16:29 | 52.28531 | -5.92369 | 35991 ft | 478 kts | 283° |
| 2026-05-07 16:30 | 52.30331 | -6.02732 | 35987 ft | 478 kts | 283° |
| 2026-05-07 16:30 | 52.33838 | -6.22871 | 35982 ft | 478 kts | 283° |
| 2026-05-07 16:31 | 52.37451 | -6.43788 | 35977 ft | 478 kts | 283° |
| 2026-05-07 16:31 | 52.41028 | -6.64753 | 35971 ft | 478 kts | 283° |
| 2026-05-07 16:32 | 52.44539 | -6.85584 | 35977 ft | 478 kts | 283° |
| 2026-05-07 16:32 | 52.48037 | -7.06587 | 35967 ft | 477 kts | 282° |
| 2026-05-07 16:33 | 52.51497 | -7.27625 | 35956 ft | 477 kts | 282° |
| 2026-05-07 16:33 | 52.54919 | -7.48683 | 35944 ft | 477 kts | 282° |
| 2026-05-07 16:34 | 52.58257 | -7.69494 | 35944 ft | 475 kts | 282° |
| 2026-05-07 16:34 | 52.61589 | -7.90522 | 35942 ft | 475 kts | 282° |
| 2026-05-07 16:35 | 52.64878 | -8.11550 | 35944 ft | 473 kts | 282° |
| 2026-05-07 16:35 | 52.68122 | -8.32554 | 35940 ft | 473 kts | 282° |
| 2026-05-07 16:36 | 52.71305 | -8.53435 | 35944 ft | 472 kts | 282° |
| 2026-05-07 16:36 | 52.74468 | -8.74460 | 35950 ft | 471 kts | 282° |
| 2026-05-07 16:37 | 52.77587 | -8.95465 | 35951 ft | 471 kts | 282° |
| 2026-05-07 16:37 | 52.80671 | -9.16510 | 35943 ft | 471 kts | 281° |
| 2026-05-07 16:38 | 52.83713 | -9.37561 | 35941 ft | 470 kts | 281° |
| 2026-05-07 16:38 | 52.86693 | -9.58464 | 35954 ft | 470 kts | 281° |
| 2026-05-07 16:39 | 52.89660 | -9.79553 | 35941 ft | 469 kts | 280° |
| 2026-05-07 16:39 | 52.92582 | -10.00632 | 35940 ft | 469 kts | 280° |
| 2026-05-07 16:40 | 52.95467 | -10.21736 | 35946 ft | 469 kts | 280° |
| 2026-05-07 16:40 | 52.98293 | -10.42707 | 35939 ft | 469 kts | 280° |
| 2026-05-07 16:41 | 53.01100 | -10.63845 | 35938 ft | 469 kts | 279° |
| 2026-05-07 16:41 | 53.03869 | -10.85004 | 35942 ft | 469 kts | 279° |
| 2026-05-07 16:42 | 53.06601 | -11.06196 | 35946 ft | 469 kts | 279° |
| 2026-05-07 16:42 | 53.09277 | -11.27269 | 35961 ft | 469 kts | 279° |
| 2026-05-07 16:43 | 53.11930 | -11.48481 | 35949 ft | 468 kts | 279° |
| 2026-05-07 16:43 | 53.14545 | -11.69717 | 35951 ft | 468 kts | 279° |
| 2026-05-07 16:44 | 53.17121 | -11.90962 | 35953 ft | 467 kts | 278° |
| 2026-05-07 16:44 | 53.19634 | -12.12033 | 35951 ft | 466 kts | 278° |
| 2026-05-07 16:45 | 53.22129 | -12.33293 | 35956 ft | 466 kts | 278° |
| 2026-05-07 16:45 | 53.24577 | -12.54496 | 35948 ft | 464 kts | 278° |
| 2026-05-07 16:46 | 53.26983 | -12.75677 | 35966 ft | 464 kts | 278° |
| 2026-05-07 16:46 | 53.29351 | -12.96879 | 35974 ft | 463 kts | 277° |
| 2026-05-07 16:47 | 53.31660 | -13.17915 | 35961 ft | 463 kts | 277° |
| 2026-05-07 16:47 | 53.33948 | -13.39122 | 35961 ft | 463 kts | 277° |
| 2026-05-07 16:48 | 53.36195 | -13.60314 | 35960 ft | 462 kts | 277° |
| 2026-05-07 16:48 | 53.38401 | -13.81502 | 35967 ft | 462 kts | 277° |
| 2026-05-07 16:49 | 53.40556 | -14.02577 | 35966 ft | 462 kts | 277° |
| 2026-05-07 16:49 | 53.42687 | -14.23807 | 35971 ft | 462 kts | 277° |
| 2026-05-07 16:50 | 53.44781 | -14.45065 | 35974 ft | 462 kts | 277° |
| 2026-05-07 16:50 | 53.46837 | -14.66337 | 35980 ft | 462 kts | 277° |
| 2026-05-07 16:51 | 53.48854 | -14.87617 | 35979 ft | 462 kts | 276° |
| 2026-05-07 16:51 | 53.50199 | -15.08839 | 35984 ft | 460 kts | 270° |
| 2026-05-07 16:52 | 53.50612 | -15.30300 | 35991 ft | 460 kts | 270° |
| 2026-05-07 16:52 | 53.50975 | -15.51781 | 35994 ft | 460 kts | 270° |
| 2026-05-07 16:53 | 53.51313 | -15.73284 | 35999 ft | 461 kts | 270° |
| 2026-05-07 16:53 | 53.51610 | -15.94710 | 35998 ft | 462 kts | 270° |
| 2026-05-07 16:54 | 53.51871 | -16.16325 | 35994 ft | 462 kts | 270° |
| 2026-05-07 16:54 | 53.52092 | -16.37936 | 36006 ft | 462 kts | 269° |
| 2026-05-07 16:55 | 53.52275 | -16.59523 | 36013 ft | 462 kts | 269° |
| 2026-05-07 16:55 | 53.52417 | -16.80993 | 36013 ft | 463 kts | 269° |
| 2026-05-07 16:56 | 53.52522 | -17.02715 | 36021 ft | 465 kts | 269° |
| 2026-05-07 16:56 | 53.52607 | -17.35362 | 36014 ft | 466 kts | 269° |
| 2026-05-07 16:57 | 53.52614 | -17.57179 | 36035 ft | 467 kts | 269° |
| 2026-05-07 16:57 | 53.52581 | -17.78857 | 36030 ft | 467 kts | 269° |
| 2026-05-07 16:58 | 53.52508 | -18.00692 | 36040 ft | 467 kts | 269° |
| 2026-05-07 16:58 | 53.52396 | -18.22522 | 36041 ft | 467 kts | 269° |
| 2026-05-07 16:59 | 53.52244 | -18.44373 | 36044 ft | 468 kts | 269° |
| 2026-05-07 16:59 | 53.52052 | -18.66249 | 36036 ft | 468 kts | 269° |
| 2026-05-07 17:00 | 53.51821 | -18.87959 | 36052 ft | 468 kts | 269° |
| 2026-05-07 17:00 | 53.51549 | -19.09860 | 36056 ft | 469 kts | 269° |
| 2026-05-07 17:01 | 53.51237 | -19.31767 | 36059 ft | 469 kts | 269° |
| 2026-05-07 17:01 | 53.50884 | -19.53655 | 36051 ft | 469 kts | 269° |
| 2026-05-07 17:02 | 53.50495 | -19.75427 | 36061 ft | 469 kts | 269° |
| 2026-05-07 17:02 | 53.50063 | -19.97318 | 36081 ft | 469 kts | 268° |
| 2026-05-07 17:03 | 53.49012 | -20.19188 | 36075 ft | 470 kts | 264° |
| 2026-05-07 17:03 | 53.47617 | -20.41031 | 36081 ft | 470 kts | 265° |
| 2026-05-07 17:04 | 53.46291 | -20.62884 | 36079 ft | 471 kts | 265° |
| 2026-05-07 17:04 | 53.44933 | -20.84604 | 36086 ft | 472 kts | 265° |
| 2026-05-07 17:05 | 53.43520 | -21.06494 | 36086 ft | 472 kts | 265° |
| 2026-05-07 17:05 | 53.42065 | -21.28401 | 36094 ft | 473 kts | 265° |
| 2026-05-07 17:06 | 53.40570 | -21.50310 | 36091 ft | 473 kts | 265° |
| 2026-05-07 17:06 | 53.39045 | -21.72060 | 36105 ft | 473 kts | 265° |
| 2026-05-07 17:07 | 53.37470 | -21.93925 | 36097 ft | 473 kts | 264° |
| 2026-05-07 17:07 | 53.35854 | -22.15796 | 36104 ft | 473 kts | 264° |
| 2026-05-07 17:08 | 53.34198 | -22.37651 | 36113 ft | 474 kts | 264° |
| 2026-05-07 17:08 | 53.32511 | -22.59377 | 36121 ft | 474 kts | 264° |
| 2026-05-07 17:09 | 53.30771 | -22.81245 | 36124 ft | 475 kts | 264° |
| 2026-05-07 17:09 | 53.28989 | -23.03129 | 36127 ft | 475 kts | 264° |
| 2026-05-07 17:10 | 53.27164 | -23.25020 | 36127 ft | 476 kts | 265° |
| 2026-05-07 17:10 | 53.25300 | -23.46893 | 36135 ft | 476 kts | 264° |
| 2026-05-07 17:11 | 53.23405 | -23.68630 | 36119 ft | 476 kts | 265° |
| 2026-05-07 17:11 | 53.21457 | -23.90507 | 36140 ft | 477 kts | 265° |
| 2026-05-07 17:12 | 53.19468 | -24.12378 | 36143 ft | 477 kts | 264° |
| 2026-05-07 17:12 | 53.17439 | -24.34209 | 36152 ft | 477 kts | 265° |
| 2026-05-07 17:13 | 53.15383 | -24.55904 | 36154 ft | 477 kts | 264° |
| 2026-05-07 17:13 | 53.13272 | -24.77731 | 36154 ft | 477 kts | 265° |
| 2026-05-07 17:14 | 53.11124 | -24.99515 | 36163 ft | 477 kts | 265° |
| 2026-05-07 17:14 | 53.08935 | -25.21297 | 36169 ft | 477 kts | 265° |
| 2026-05-07 17:15 | 53.06720 | -25.42899 | 36178 ft | 477 kts | 265° |
| 2026-05-07 17:15 | 53.04452 | -25.64618 | 36177 ft | 477 kts | 265° |
| 2026-05-07 17:16 | 53.02148 | -25.86282 | 36180 ft | 476 kts | 265° |
| 2026-05-07 17:16 | 52.99806 | -26.07912 | 36190 ft | 476 kts | 265° |
| 2026-05-07 17:17 | 52.97440 | -26.29379 | 36173 ft | 475 kts | 265° |
| 2026-05-07 17:17 | 52.95028 | -26.50893 | 36187 ft | 474 kts | 265° |
| 2026-05-07 17:18 | 52.92578 | -26.72386 | 36209 ft | 474 kts | 265° |
| 2026-05-07 17:18 | 52.90090 | -26.93834 | 36212 ft | 475 kts | 265° |
| 2026-05-07 17:19 | 52.87577 | -27.15147 | 36202 ft | 475 kts | 265° |
| 2026-05-07 17:19 | 52.85012 | -27.36546 | 36206 ft | 472 kts | 265° |
| 2026-05-07 17:20 | 52.82421 | -27.57841 | 36208 ft | 472 kts | 265° |
| 2026-05-07 17:20 | 52.79789 | -27.79111 | 36210 ft | 472 kts | 266° |
| 2026-05-07 17:21 | 52.77127 | -28.00275 | 36219 ft | 470 kts | 266° |
| 2026-05-07 17:21 | 52.74449 | -28.21264 | 36222 ft | 470 kts | 265° |
| 2026-05-07 17:22 | 52.71720 | -28.42341 | 36222 ft | 470 kts | 266° |
| 2026-05-07 17:22 | 52.68949 | -28.63421 | 36231 ft | 470 kts | 266° |
| 2026-05-07 17:23 | 52.66142 | -28.84462 | 36237 ft | 471 kts | 266° |
| 2026-05-07 17:23 | 52.63313 | -29.05373 | 36238 ft | 471 kts | 266° |
| 2026-05-07 17:24 | 52.60425 | -29.26403 | 36214 ft | 471 kts | 266° |
| 2026-05-07 17:24 | 52.57516 | -29.47278 | 36240 ft | 466 kts | 266° |
| 2026-05-07 17:25 | 52.54588 | -29.68049 | 36244 ft | 466 kts | 266° |
| 2026-05-07 17:25 | 52.51649 | -29.88571 | 36246 ft | 463 kts | 266° |
| 2026-05-07 17:26 | 52.48866 | -30.09161 | 36250 ft | 458 kts | 270° |
| 2026-05-07 17:26 | 52.46858 | -30.29776 | 36259 ft | 458 kts | 270° |
| 2026-05-07 17:27 | 52.44677 | -30.50371 | 36257 ft | 459 kts | 269° |
| 2026-05-07 17:27 | 52.42445 | -30.70793 | 36262 ft | 459 kts | 269° |
| 2026-05-07 17:28 | 52.40162 | -30.91408 | 36265 ft | 461 kts | 269° |
| 2026-05-07 17:28 | 52.37835 | -31.12053 | 36268 ft | 461 kts | 268° |
| 2026-05-07 17:29 | 52.35473 | -31.32684 | 36274 ft | 462 kts | 268° |
| 2026-05-07 17:29 | 52.33068 | -31.53318 | 36274 ft | 462 kts | 268° |
| 2026-05-07 17:30 | 52.30642 | -31.73821 | 36279 ft | 462 kts | 268° |
| 2026-05-07 17:30 | 52.28164 | -31.94442 | 36278 ft | 463 kts | 268° |
| 2026-05-07 17:31 | 52.25652 | -32.15031 | 36282 ft | 463 kts | 267° |
| 2026-05-07 17:31 | 52.23100 | -32.35631 | 36282 ft | 463 kts | 267° |
| 2026-05-07 17:32 | 52.20950 | -32.52756 | 36284 ft | 464 kts | 267° |
| 2026-05-07 17:32 | 52.18516 | -32.71872 | 36284 ft | 462 kts | 267° |
| 2026-05-07 17:33 | 52.17207 | -32.82037 | 36494 ft | 460 kts | 267° |
| 2026-05-07 17:33 | 52.16549 | -32.87117 | 36832 ft | 458 kts | 267° |
| 2026-05-07 17:33 | 52.15890 | -32.92188 | 37094 ft | 458 kts | 267° |
| 2026-05-07 17:34 | 52.15232 | -32.97255 | 37328 ft | 458 kts | 267° |
| 2026-05-07 17:34 | 52.14570 | -33.02329 | 37527 ft | 458 kts | 266° |
| 2026-05-07 17:34 | 52.13687 | -33.09062 | 37801 ft | 459 kts | 266° |
| 2026-05-07 17:34 | 52.13020 | -33.14129 | 37994 ft | 459 kts | 266° |
| 2026-05-07 17:35 | 52.12566 | -33.17565 | 38132 ft | 459 kts | 266° |
| 2026-05-07 17:35 | 52.11892 | -33.22651 | 38269 ft | 461 kts | 266° |
| 2026-05-07 17:35 | 52.10538 | -33.32829 | 38297 ft | 465 kts | 266° |
| 2026-05-07 17:36 | 52.09160 | -33.43063 | 38295 ft | 463 kts | 266° |
| 2026-05-07 17:36 | 52.07779 | -33.53264 | 38295 ft | 462 kts | 266° |
| 2026-05-07 17:37 | 52.06390 | -33.63472 | 38298 ft | 462 kts | 266° |
| 2026-05-07 17:37 | 52.05001 | -33.73605 | 38298 ft | 462 kts | 266° |
| 2026-05-07 17:38 | 52.03594 | -33.83790 | 38297 ft | 461 kts | 266° |
| 2026-05-07 17:38 | 52.02182 | -33.93940 | 38300 ft | 461 kts | 266° |
| 2026-05-07 17:39 | 52.00764 | -34.04077 | 38301 ft | 461 kts | 266° |
| 2026-05-07 17:39 | 51.99346 | -34.14146 | 38300 ft | 461 kts | 266° |
| 2026-05-07 17:40 | 51.97910 | -34.24265 | 38300 ft | 459 kts | 266° |
| 2026-05-07 17:40 | 51.96474 | -34.34319 | 38305 ft | 457 kts | 266° |
| 2026-05-07 17:41 | 51.95031 | -34.44361 | 38301 ft | 457 kts | 265° |
| 2026-05-07 17:41 | 51.93580 | -34.54395 | 38308 ft | 457 kts | 265° |
| 2026-05-07 17:42 | 51.92130 | -34.64357 | 38306 ft | 457 kts | 265° |
| 2026-05-07 17:42 | 51.90661 | -34.74381 | 38263 ft | 457 kts | 265° |
| 2026-05-07 17:43 | 51.89183 | -34.84404 | 38303 ft | 458 kts | 265° |
| 2026-05-07 17:43 | 51.87697 | -34.94412 | 38303 ft | 458 kts | 265° |
| 2026-05-07 17:44 | 51.86209 | -35.04387 | 38310 ft | 463 kts | 265° |
| 2026-05-07 17:44 | 51.84680 | -35.14590 | 38306 ft | 469 kts | 265° |
| 2026-05-07 17:45 | 51.83123 | -35.24879 | 38277 ft | 472 kts | 264° |
| 2026-05-07 17:45 | 51.81548 | -35.35194 | 38307 ft | 473 kts | 264° |
| 2026-05-07 17:46 | 51.79961 | -35.45531 | 38306 ft | 474 kts | 264° |
| 2026-05-07 17:46 | 51.78376 | -35.55796 | 38307 ft | 475 kts | 264° |
| 2026-05-07 17:47 | 51.76770 | -35.66140 | 38306 ft | 475 kts | 264° |
| 2026-05-07 17:47 | 51.75156 | -35.76464 | 38310 ft | 474 kts | 263° |
| 2026-05-07 17:48 | 51.73535 | -35.86773 | 38308 ft | 474 kts | 263° |
| 2026-05-07 17:48 | 51.71915 | -35.97013 | 38304 ft | 474 kts | 263° |
| 2026-05-07 17:49 | 51.70276 | -36.07314 | 38309 ft | 474 kts | 263° |
| 2026-05-07 17:49 | 51.68638 | -36.17494 | 38306 ft | 462 kts | 263° |
| 2026-05-07 17:50 | 51.67032 | -36.27453 | 38305 ft | 458 kts | 263° |
| 2026-05-07 17:50 | 51.65437 | -36.37328 | 38309 ft | 459 kts | 263° |
| 2026-05-07 17:51 | 51.63819 | -36.47269 | 38305 ft | 459 kts | 263° |
| 2026-05-07 17:51 | 51.62193 | -36.57187 | 38305 ft | 459 kts | 262° |
| 2026-05-07 17:52 | 51.60555 | -36.67110 | 38307 ft | 459 kts | 262° |
| 2026-05-07 17:52 | 51.58920 | -36.76961 | 38306 ft | 459 kts | 262° |
| 2026-05-07 17:53 | 51.57266 | -36.86873 | 38305 ft | 459 kts | 262° |
| 2026-05-07 17:53 | 51.55603 | -36.96779 | 38306 ft | 459 kts | 262° |
| 2026-05-07 17:54 | 51.53932 | -37.06677 | 38307 ft | 459 kts | 262° |
| 2026-05-07 17:54 | 51.52263 | -37.16503 | 38268 ft | 459 kts | 262° |
| 2026-05-07 17:55 | 51.50573 | -37.26396 | 38306 ft | 459 kts | 261° |
| 2026-05-07 17:55 | 51.48879 | -37.36261 | 38306 ft | 459 kts | 261° |
| 2026-05-07 17:56 | 51.47175 | -37.46128 | 38306 ft | 459 kts | 261° |
| 2026-05-07 17:56 | 51.45463 | -37.55987 | 38306 ft | 459 kts | 261° |
| 2026-05-07 17:57 | 51.44034 | -37.64180 | 38282 ft | 459 kts | 261° |
| 2026-05-07 17:57 | 51.42025 | -37.75626 | 38306 ft | 459 kts | 261° |
| 2026-05-07 17:58 | 51.40287 | -37.85467 | 38306 ft | 459 kts | 261° |
| 2026-05-07 17:58 | 51.38539 | -37.95309 | 38306 ft | 460 kts | 261° |
| 2026-05-07 17:59 | 51.36795 | -38.05080 | 38306 ft | 459 kts | 261° |
| 2026-05-07 17:59 | 51.35032 | -38.14908 | 38297 ft | 460 kts | 260° |
| 2026-05-07 18:00 | 51.33259 | -38.24735 | 38301 ft | 460 kts | 260° |
| 2026-05-07 18:00 | 51.31475 | -38.34565 | 38308 ft | 460 kts | 260° |
| 2026-05-07 18:01 | 51.29695 | -38.44321 | 38299 ft | 461 kts | 260° |
| 2026-05-07 18:01 | 51.27894 | -38.54141 | 38317 ft | 461 kts | 259° |
| 2026-05-07 18:02 | 51.25177 | -38.68856 | 38304 ft | 460 kts | 259° |
| 2026-05-07 18:03 | 51.23359 | -38.78635 | 38304 ft | 459 kts | 259° |
| 2026-05-07 18:03 | 51.21547 | -38.88333 | 38302 ft | 459 kts | 259° |
| 2026-05-07 18:04 | 51.19716 | -38.98087 | 38302 ft | 459 kts | 259° |
| 2026-05-07 18:04 | 51.17876 | -39.07838 | 38297 ft | 460 kts | 258° |
| 2026-05-07 18:05 | 51.16026 | -39.17585 | 38305 ft | 460 kts | 258° |
| 2026-05-07 18:05 | 51.14165 | -39.27340 | 38300 ft | 460 kts | 258° |
| 2026-05-07 18:06 | 51.12308 | -39.37024 | 38301 ft | 460 kts | 258° |
| 2026-05-07 18:06 | 51.10431 | -39.46767 | 38295 ft | 460 kts | 258° |
| 2026-05-07 18:07 | 51.08545 | -39.56508 | 38294 ft | 462 kts | 258° |
| 2026-05-07 18:07 | 51.06647 | -39.66261 | 38292 ft | 462 kts | 258° |
| 2026-05-07 18:08 | 51.04749 | -39.75959 | 38290 ft | 463 kts | 257° |
| 2026-05-07 18:08 | 51.02829 | -39.85716 | 38292 ft | 463 kts | 257° |
| 2026-05-07 18:09 | 51.00902 | -39.95465 | 38296 ft | 463 kts | 257° |
| 2026-05-07 18:09 | 50.99457 | -40.05352 | 38283 ft | 459 kts | 264° |
| 2026-05-07 18:10 | 50.98385 | -40.15264 | 38287 ft | 459 kts | 264° |
| 2026-05-07 18:10 | 50.97351 | -40.25249 | 38286 ft | 458 kts | 264° |
| 2026-05-07 18:11 | 50.96307 | -40.35222 | 38288 ft | 459 kts | 264° |
| 2026-05-07 18:11 | 50.95244 | -40.45194 | 38284 ft | 458 kts | 264° |
| 2026-05-07 18:12 | 50.94177 | -40.55101 | 38293 ft | 460 kts | 264° |
| 2026-05-07 18:12 | 50.93090 | -40.65095 | 38280 ft | 460 kts | 264° |
| 2026-05-07 18:13 | 50.91995 | -40.75082 | 38267 ft | 460 kts | 264° |
| 2026-05-07 18:13 | 50.90890 | -40.85083 | 38304 ft | 459 kts | 263° |
| 2026-05-07 18:14 | 50.89784 | -40.95022 | 38274 ft | 462 kts | 264° |
| 2026-05-07 18:14 | 50.88660 | -41.05020 | 38266 ft | 461 kts | 263° |
| 2026-05-07 18:15 | 50.87529 | -41.15004 | 38276 ft | 461 kts | 263° |
| 2026-05-07 18:15 | 50.86387 | -41.24996 | 38279 ft | 461 kts | 263° |
| 2026-05-07 18:16 | 50.85246 | -41.34912 | 38277 ft | 461 kts | 263° |
| 2026-05-07 18:16 | 50.84089 | -41.44889 | 38271 ft | 461 kts | 263° |
| 2026-05-07 18:17 | 50.82925 | -41.54852 | 38268 ft | 461 kts | 263° |
| 2026-05-07 18:17 | 50.81751 | -41.64823 | 38271 ft | 461 kts | 262° |
| 2026-05-07 18:18 | 50.80568 | -41.74788 | 38278 ft | 461 kts | 262° |
| 2026-05-07 18:18 | 50.79385 | -41.84681 | 38267 ft | 461 kts | 262° |
| 2026-05-07 18:19 | 50.78186 | -41.94624 | 38274 ft | 461 kts | 262° |
| 2026-05-07 18:19 | 50.76979 | -42.04572 | 38242 ft | 461 kts | 262° |
| 2026-05-07 18:20 | 50.75761 | -42.14533 | 38269 ft | 462 kts | 262° |
| 2026-05-07 18:20 | 50.74532 | -42.24505 | 38268 ft | 463 kts | 262° |
| 2026-05-07 18:21 | 50.73301 | -42.34408 | 38269 ft | 463 kts | 262° |
| 2026-05-07 18:21 | 50.72055 | -42.44375 | 38268 ft | 463 kts | 262° |
| 2026-05-07 18:22 | 50.70799 | -42.54339 | 38271 ft | 463 kts | 261° |
| 2026-05-07 18:22 | 50.69536 | -42.64294 | 38269 ft | 464 kts | 261° |
| 2026-05-07 18:23 | 50.68270 | -42.74198 | 38266 ft | 464 kts | 261° |
| 2026-05-07 18:23 | 50.66986 | -42.84166 | 38266 ft | 464 kts | 261° |
| 2026-05-07 18:24 | 50.65694 | -42.94129 | 38270 ft | 464 kts | 261° |
| 2026-05-07 18:24 | 50.64396 | -43.04070 | 38266 ft | 462 kts | 261° |
| 2026-05-07 18:25 | 50.63100 | -43.13925 | 38263 ft | 463 kts | 260° |
| 2026-05-07 18:25 | 50.61786 | -43.23841 | 38265 ft | 463 kts | 260° |
| 2026-05-07 18:26 | 50.60463 | -43.33761 | 38266 ft | 463 kts | 260° |
| 2026-05-07 18:26 | 50.59131 | -43.43677 | 38262 ft | 463 kts | 260° |
| 2026-05-07 18:27 | 50.57791 | -43.53586 | 38262 ft | 463 kts | 260° |
| 2026-05-07 18:27 | 50.56443 | -43.63493 | 38263 ft | 463 kts | 259° |
| 2026-05-07 18:28 | 50.55095 | -43.73323 | 38260 ft | 463 kts | 259° |
| 2026-05-07 18:28 | 50.53729 | -43.83226 | 38260 ft | 463 kts | 259° |
| 2026-05-07 18:29 | 50.52354 | -43.93122 | 38264 ft | 463 kts | 259° |
| 2026-05-07 18:29 | 50.50984 | -44.02919 | 38262 ft | 461 kts | 259° |
| 2026-05-07 18:30 | 50.49599 | -44.12755 | 38262 ft | 461 kts | 259° |
| 2026-05-07 18:30 | 50.48206 | -44.22588 | 38262 ft | 461 kts | 259° |
| 2026-05-07 18:31 | 50.46806 | -44.32407 | 38262 ft | 461 kts | 258° |
| 2026-05-07 18:31 | 50.45395 | -44.42231 | 38262 ft | 461 kts | 258° |
| 2026-05-07 18:32 | 50.43986 | -44.51984 | 38260 ft | 461 kts | 258° |
| 2026-05-07 18:32 | 50.42560 | -44.61800 | 38258 ft | 462 kts | 258° |
| 2026-05-07 18:33 | 50.41122 | -44.71625 | 38262 ft | 462 kts | 258° |
| 2026-05-07 18:33 | 50.39675 | -44.81449 | 38262 ft | 462 kts | 258° |
| 2026-05-07 18:34 | 50.38231 | -44.91197 | 38259 ft | 461 kts | 258° |
| 2026-05-07 18:34 | 50.36775 | -45.00962 | 38260 ft | 460 kts | 258° |
| 2026-05-07 18:35 | 50.35310 | -45.10721 | 38262 ft | 460 kts | 257° |
| 2026-05-07 18:35 | 50.33836 | -45.20485 | 38257 ft | 461 kts | 257° |
| 2026-05-07 18:36 | 50.32353 | -45.30250 | 38260 ft | 461 kts | 257° |
| 2026-05-07 18:36 | 50.30871 | -45.39942 | 38260 ft | 461 kts | 257° |
| 2026-05-07 18:37 | 50.29374 | -45.49680 | 38264 ft | 461 kts | 257° |
| 2026-05-07 18:37 | 50.27866 | -45.59430 | 38253 ft | 461 kts | 257° |
| 2026-05-07 18:38 | 50.26351 | -45.69163 | 38260 ft | 461 kts | 257° |
| 2026-05-07 18:38 | 50.24835 | -45.78846 | 38263 ft | 462 kts | 257° |
| 2026-05-07 18:39 | 50.23308 | -45.88545 | 38260 ft | 458 kts | 257° |
| 2026-05-07 18:39 | 50.21782 | -45.98171 | 38259 ft | 457 kts | 257° |
| 2026-05-07 18:40 | 50.20250 | -46.07788 | 38257 ft | 457 kts | 257° |
| 2026-05-07 18:40 | 50.18719 | -46.17342 | 38257 ft | 456 kts | 256° |
| 2026-05-07 18:41 | 50.17172 | -46.26939 | 38260 ft | 456 kts | 256° |
| 2026-05-07 18:41 | 50.15616 | -46.36536 | 38254 ft | 456 kts | 256° |
| 2026-05-07 18:42 | 50.14052 | -46.46127 | 38254 ft | 456 kts | 256° |
| 2026-05-07 18:42 | 50.12490 | -46.55648 | 38253 ft | 456 kts | 256° |
| 2026-05-07 18:43 | 50.10912 | -46.65216 | 38253 ft | 456 kts | 256° |
| 2026-05-07 18:43 | 50.09326 | -46.74784 | 38251 ft | 455 kts | 256° |
| 2026-05-07 18:44 | 50.07740 | -46.84293 | 38252 ft | 453 kts | 256° |
| 2026-05-07 18:44 | 50.06151 | -46.93767 | 38254 ft | 452 kts | 256° |
| 2026-05-07 18:45 | 50.04566 | -47.03167 | 38247 ft | 452 kts | 256° |
| 2026-05-07 18:45 | 50.02963 | -47.12622 | 38249 ft | 452 kts | 255° |
| 2026-05-07 18:46 | 50.01355 | -47.22051 | 38253 ft | 451 kts | 255° |
| 2026-05-07 18:46 | 49.99739 | -47.31480 | 38252 ft | 451 kts | 255° |
| 2026-05-07 18:47 | 49.98126 | -47.40842 | 38249 ft | 451 kts | 255° |
| 2026-05-07 18:47 | 49.96494 | -47.50259 | 38245 ft | 451 kts | 255° |
| 2026-05-07 18:48 | 49.94857 | -47.59661 | 38244 ft | 451 kts | 255° |
| 2026-05-07 18:48 | 49.93213 | -47.69056 | 38247 ft | 449 kts | 254° |
| 2026-05-07 18:49 | 49.91580 | -47.78327 | 38246 ft | 448 kts | 254° |
| 2026-05-07 18:49 | 49.89932 | -47.87642 | 38241 ft | 448 kts | 254° |
| 2026-05-07 18:50 | 49.88275 | -47.96956 | 38240 ft | 448 kts | 254° |
| 2026-05-07 18:50 | 49.86611 | -48.06263 | 38242 ft | 448 kts | 253° |
| 2026-05-07 18:51 | 49.84954 | -48.15485 | 38239 ft | 447 kts | 253° |
| 2026-05-07 18:51 | 49.83278 | -48.24759 | 38238 ft | 447 kts | 253° |
| 2026-05-07 18:52 | 49.81597 | -48.34019 | 38237 ft | 447 kts | 253° |
| 2026-05-07 18:52 | 49.79907 | -48.43280 | 38238 ft | 447 kts | 253° |
| 2026-05-07 18:53 | 49.78201 | -48.52585 | 38237 ft | 447 kts | 253° |
| 2026-05-07 18:53 | 49.76522 | -48.61697 | 38227 ft | 445 kts | 252° |
| 2026-05-07 18:54 | 49.74821 | -48.70878 | 38227 ft | 444 kts | 252° |
| 2026-05-07 18:54 | 49.73114 | -48.80045 | 38227 ft | 444 kts | 252° |
| 2026-05-07 18:55 | 49.71399 | -48.89213 | 38219 ft | 444 kts | 252° |
| 2026-05-07 18:55 | 49.69688 | -48.98313 | 38219 ft | 444 kts | 252° |
| 2026-05-07 18:56 | 49.67960 | -49.07463 | 38219 ft | 444 kts | 251° |
| 2026-05-07 18:56 | 49.66220 | -49.16623 | 38219 ft | 445 kts | 251° |
| 2026-05-07 18:57 | 49.64474 | -49.25779 | 38208 ft | 445 kts | 251° |
| 2026-05-07 18:57 | 49.62720 | -49.34930 | 38208 ft | 445 kts | 251° |
| 2026-05-07 18:58 | 49.60971 | -49.44007 | 38225 ft | 445 kts | 250° |
| 2026-05-07 18:58 | 49.59205 | -49.53128 | 38205 ft | 444 kts | 250° |
| 2026-05-07 18:59 | 49.57436 | -49.62227 | 38195 ft | 443 kts | 250° |
| 2026-05-07 18:59 | 49.55658 | -49.71325 | 38195 ft | 443 kts | 250° |
| 2026-05-07 19:00 | 49.53885 | -49.80359 | 38193 ft | 443 kts | 250° |
| 2026-05-07 19:00 | 49.52097 | -49.89430 | 38195 ft | 443 kts | 250° |
| 2026-05-07 19:01 | 49.50298 | -49.98505 | 38183 ft | 443 kts | 250° |
| 2026-05-07 19:01 | 49.48367 | -50.07487 | 38181 ft | 441 kts | 247° |
| 2026-05-07 19:02 | 49.46179 | -50.16301 | 38178 ft | 441 kts | 246° |
| 2026-05-07 19:02 | 49.44000 | -50.25039 | 38178 ft | 441 kts | 246° |
| 2026-05-07 19:03 | 49.41840 | -50.33867 | 38176 ft | 441 kts | 246° |
| 2026-05-07 19:03 | 49.39704 | -50.42660 | 38167 ft | 437 kts | 246° |
| 2026-05-07 19:04 | 49.37575 | -50.51397 | 38160 ft | 437 kts | 246° |
| 2026-05-07 19:04 | 49.35437 | -50.60126 | 38159 ft | 437 kts | 246° |
| 2026-05-07 19:05 | 49.33294 | -50.68833 | 38154 ft | 437 kts | 246° |
| 2026-05-07 19:05 | 49.31158 | -50.77482 | 38148 ft | 437 kts | 246° |
| 2026-05-07 19:06 | 49.29002 | -50.86181 | 38141 ft | 437 kts | 245° |
| 2026-05-07 19:06 | 49.25749 | -50.99235 | 38148 ft | 438 kts | 245° |
| 2026-05-07 19:07 | 49.23571 | -51.07931 | 38137 ft | 437 kts | 245° |
| 2026-05-07 19:07 | 49.21403 | -51.16560 | 38127 ft | 437 kts | 245° |
| 2026-05-07 19:08 | 49.19216 | -51.25228 | 38127 ft | 437 kts | 245° |
| 2026-05-07 19:08 | 49.17020 | -51.33896 | 38121 ft | 437 kts | 245° |
| 2026-05-07 19:09 | 49.14819 | -51.42556 | 38127 ft | 437 kts | 245° |
| 2026-05-07 19:09 | 49.12610 | -51.51208 | 38110 ft | 437 kts | 245° |
| 2026-05-07 19:10 | 49.10396 | -51.59852 | 38109 ft | 437 kts | 245° |
| 2026-05-07 19:10 | 49.08193 | -51.68419 | 38101 ft | 437 kts | 245° |
| 2026-05-07 19:11 | 49.05964 | -51.77054 | 38103 ft | 438 kts | 245° |
| 2026-05-07 19:11 | 49.03725 | -51.85693 | 38102 ft | 438 kts | 245° |
| 2026-05-07 19:12 | 49.01480 | -51.94324 | 38097 ft | 438 kts | 245° |
| 2026-05-07 19:12 | 48.99227 | -52.02948 | 38094 ft | 438 kts | 244° |
| 2026-05-07 19:13 | 48.96952 | -52.11483 | 38091 ft | 438 kts | 244° |
| 2026-05-07 19:13 | 48.94643 | -52.20056 | 38087 ft | 439 kts | 244° |
| 2026-05-07 19:14 | 48.92329 | -52.28641 | 38072 ft | 438 kts | 244° |
| 2026-05-07 19:14 | 48.90018 | -52.37201 | 38069 ft | 437 kts | 244° |
| 2026-05-07 19:15 | 48.87719 | -52.45687 | 38069 ft | 437 kts | 244° |
| 2026-05-07 19:15 | 48.85399 | -52.54218 | 38063 ft | 437 kts | 244° |
| 2026-05-07 19:16 | 48.83070 | -52.62752 | 38062 ft | 438 kts | 244° |
| 2026-05-07 19:16 | 48.80735 | -52.71275 | 38045 ft | 438 kts | 244° |
| 2026-05-07 19:17 | 48.78391 | -52.79804 | 38042 ft | 438 kts | 244° |
| 2026-05-07 19:17 | 48.76057 | -52.88266 | 38039 ft | 438 kts | 244° |
| 2026-05-07 19:18 | 48.73703 | -52.96765 | 38041 ft | 438 kts | 245° |
| 2026-05-07 19:18 | 48.71341 | -53.05268 | 38035 ft | 438 kts | 245° |
| 2026-05-07 19:19 | 48.68971 | -53.13765 | 38034 ft | 438 kts | 245° |
| 2026-05-07 19:19 | 48.66595 | -53.22255 | 38061 ft | 438 kts | 245° |
| 2026-05-07 19:20 | 48.64235 | -53.30656 | 38036 ft | 436 kts | 245° |
| 2026-05-07 19:20 | 48.61861 | -53.39078 | 38039 ft | 435 kts | 245° |
| 2026-05-07 19:21 | 48.59481 | -53.47494 | 38036 ft | 436 kts | 245° |
| 2026-05-07 19:21 | 48.57096 | -53.55895 | 38040 ft | 436 kts | 245° |
| 2026-05-07 19:22 | 48.54717 | -53.64248 | 38037 ft | 436 kts | 245° |
| 2026-05-07 19:22 | 48.52317 | -53.72643 | 38042 ft | 436 kts | 245° |
| 2026-05-07 19:23 | 48.49913 | -53.81025 | 38036 ft | 436 kts | 245° |
| 2026-05-07 19:23 | 48.47493 | -53.89433 | 38037 ft | 438 kts | 245° |
| 2026-05-07 19:24 | 48.45080 | -53.97787 | 38035 ft | 438 kts | 245° |
| 2026-05-07 19:24 | 48.42645 | -54.06190 | 38034 ft | 438 kts | 245° |
| 2026-05-07 19:25 | 48.40206 | -54.14575 | 38047 ft | 438 kts | 245° |
| 2026-05-07 19:25 | 48.37759 | -54.22951 | 38028 ft | 436 kts | 246° |
| 2026-05-07 19:26 | 48.35332 | -54.31237 | 38028 ft | 435 kts | 246° |
| 2026-05-07 19:26 | 48.32886 | -54.39564 | 38025 ft | 435 kts | 245° |
| 2026-05-07 19:27 | 48.30434 | -54.47880 | 38026 ft | 435 kts | 245° |
| 2026-05-07 19:27 | 48.27977 | -54.56187 | 38013 ft | 435 kts | 245° |
| 2026-05-07 19:28 | 48.25533 | -54.64419 | 38011 ft | 434 kts | 245° |
| 2026-05-07 19:28 | 48.23078 | -54.72664 | 38013 ft | 433 kts | 245° |
| 2026-05-07 19:29 | 48.20616 | -54.80904 | 38015 ft | 433 kts | 245° |
| 2026-05-07 19:29 | 48.18148 | -54.89135 | 37977 ft | 433 kts | 245° |
| 2026-05-07 19:30 | 48.15674 | -54.97357 | 37976 ft | 433 kts | 245° |
| 2026-05-07 19:30 | 48.13212 | -55.05506 | 37966 ft | 432 kts | 246° |
| 2026-05-07 19:31 | 48.10742 | -55.13666 | 37965 ft | 429 kts | 245° |
| 2026-05-07 19:31 | 48.08283 | -55.21761 | 37966 ft | 428 kts | 245° |
| 2026-05-07 19:32 | 48.05817 | -55.29851 | 37930 ft | 427 kts | 245° |
| 2026-05-07 19:32 | 48.03345 | -55.37934 | 37930 ft | 427 kts | 245° |
| 2026-05-07 19:33 | 48.00883 | -55.45955 | 37925 ft | 428 kts | 245° |
| 2026-05-07 19:33 | 47.98401 | -55.54019 | 37925 ft | 428 kts | 245° |
| 2026-05-07 19:34 | 47.95911 | -55.62080 | 37902 ft | 428 kts | 245° |
| 2026-05-07 19:34 | 47.93416 | -55.70134 | 37902 ft | 428 kts | 245° |
| 2026-05-07 19:35 | 47.90918 | -55.78171 | 37883 ft | 427 kts | 245° |
| 2026-05-07 19:35 | 47.88426 | -55.86160 | 37898 ft | 428 kts | 245° |
| 2026-05-07 19:36 | 47.85912 | -55.94200 | 37893 ft | 428 kts | 245° |
| 2026-05-07 19:36 | 47.83394 | -56.02226 | 37883 ft | 427 kts | 245° |
| 2026-05-07 19:37 | 47.80877 | -56.10225 | 37879 ft | 427 kts | 244° |
| 2026-05-07 19:37 | 47.78374 | -56.18147 | 37874 ft | 427 kts | 245° |
| 2026-05-07 19:38 | 47.75841 | -56.26141 | 37884 ft | 427 kts | 245° |
| 2026-05-07 19:38 | 47.73306 | -56.34115 | 37885 ft | 427 kts | 245° |
| 2026-05-07 19:39 | 47.70763 | -56.42092 | 37897 ft | 427 kts | 245° |
| 2026-05-07 19:39 | 47.68644 | -56.48718 | 37898 ft | 427 kts | 245° |
| 2026-05-07 19:40 | 47.65678 | -56.57967 | 37903 ft | 426 kts | 245° |
| 2026-05-07 19:40 | 47.63136 | -56.65863 | 37916 ft | 423 kts | 245° |
| 2026-05-07 19:41 | 47.60599 | -56.73715 | 37919 ft | 422 kts | 245° |
| 2026-05-07 19:41 | 47.58059 | -56.81559 | 37915 ft | 422 kts | 245° |
| 2026-05-07 19:42 | 47.55535 | -56.89336 | 37933 ft | 422 kts | 244° |
| 2026-05-07 19:42 | 47.52988 | -56.97154 | 37920 ft | 419 kts | 244° |
| 2026-05-07 19:43 | 47.50472 | -57.04855 | 37928 ft | 414 kts | 244° |
| 2026-05-07 19:43 | 47.47965 | -57.12504 | 37932 ft | 413 kts | 244° |
| 2026-05-07 19:44 | 47.45453 | -57.20142 | 37920 ft | 413 kts | 244° |